Oceana Nas /Apollo Soucek Field/ Station
KNTU : rendu visible

Aérodrome :











RETROUVEZ-NOUS SUR...

 
LOGIN :

S'inscrire | Disclaimer

   EN    FR    IT 

 









Légende :    VFR   VFR Marginal   IFR   IFR Intensif   IFR Très Intensif
Visi : 
Plafond : 
>= 8 km
>= 3000ft
5 à 8 km
1000 à 3000 ft
1500m à 5 km
500 à 1000 ft
800 à 1500m
200 à 500 ft
< 800m
< 200 ft
Symboles :   Orages  Brouillard  Fortes neiges  Fortes précipitations  Vent > 20 kt






- Altitude de l'aérodrome : 23 ft


KNTU - Oceana Nas /Apollo Soucek Field/ Station

DERNIER METAR :
  • 011256Z 03015G18KT 10SM SCT090 SCT250 17/07 A3028 RMK AO2 SLP255 T01720072

METARs EXPIRÉS :
  • 011156Z 05013G21KT 10SM SCT090 SCT250 16/08 A3025 RMK AO2 SLP247 T01610078 10161 20100 52024
  • 011056Z 05008KT 10SM SCT043 SCT090 16/10 A3023 RMK AO2 SLP240 T01560100

TAF TAF KNTU
Valide du 01 à 07h jusqu'au 02 à 07h UTC


0107/0207 VRB06KT 9999 FEW020 SCT050 QNH3011INS
BECMG 0112/0114 04013G28KT 9999 FEW250 QNH3017INS
BECMG 0200/0202 19010G20KT 9999 FEW030 SCT070 QNH3015INS T10/0110Z T22/0122Z FN00226
FIR KZDC / Amérique du Nord



MET'MAP, la Météo Aéronautique d'un coup d'oeil ! - Copyright ORBIFLY Décembre 2007 - Disclaimer

ORBIFLY MET'MAP TEAM :

Programmation & Développement : Alexandra Zaïnal
Sur une idée originale de : Baudouin d'Aumeries
Assistance à la programmation : Marc-Olivier Méhu
Soutien technique & logistique : Manuel Goepfert

Contact : metmap@orbifly.com




SOURCES & CREDITS :

   NOAA       Earth
Advisory